San Clemente, CA

3:11 AM PDT on August 27, 2016 (GMT -0700)
MesoWest | | Change Station

Elev 24 ft 33.42 °N, 117.62 °W | Updated 1 hour ago

Overcast
Overcast
67.0 °F
Feels Like 67.0 °F
N
3.0
Wind Variable Wind from ESE
Gusts 8.0 mph

Today
High -- | Low -- °F
--% Chance of Precip.
Yesterday
High -- | Low -- °F
Precip. -- in
Pressure 30.20 in
Visibility 9.0 miles
Clouds Overcast 2000 ft
Dew Point 61.0 °F
Humidity 81%
Rainfall in
Snow Depth Not available.
6:21 AM 7:21 PM
Waning Crescent, 26% visible
METAR KNXF 270956Z AUTO 10004KT 9SM OVC020 20/15 A2995 RMK AO2 SLP225 T02000150 $
Pressure 30.20 in
Visibility 9.0 miles
Clouds Overcast 2000 ft
Dew Point 61.0 °F
Humidity 81%
Rainfall in
Snow Depth Not available.
6:21 AM 7:21 PM
Waning Crescent, 26% visible
METAR KNXF 270956Z AUTO 10004KT 9SM OVC020 20/15 A2995 RMK AO2 SLP225 T02000150 $

10-Day Weather Forecast

Almanac

Astronomy

Aug. 27, 2016 Rise Set
Actual Time
Civil Twilight
Nautical Twilight
Astronomical Twilight
Moon
Length of Visible Light
Length of Day
Tomorrow will be .
, % of the Moon is Illuminated

Today's Extremes

State Highs State Lows

Community

WunderPhotos

Upload Photos

1,935,313 photos uploaded!

WunderBlog® & News

Nearby

Air Quality

  Air Quality AQ Index Pollutant
Not available.

Snow Depth

Station Depth Elevation

Earthquake Activity

City Distance Mag. Time & Date
Minimum magnitude displayed is 2.5.

Coastal Water Temperatures

Place Temperature

Stations

Nearby Weather Stations

Station Location Temp. Windchill Dew Point Humidity Wind Precip. Elev Updated Type
                   

Watches & Warnings

There are currently no watches in effect.